createdAt,value
2018-05-15T00:02:07.667Z,75.67
2018-05-15T00:04:36.385Z,76.06
2018-05-15T00:07:05.137Z,77.63
2018-05-15T00:09:34.016Z,77.59
2018-05-15T00:12:02.798Z,77.47
2018-05-15T00:14:31.621Z,77.33
2018-05-15T00:17:00.824Z,77.43
2018-05-15T00:19:29.876Z,77.60
2018-05-15T00:21:59.532Z,77.76
2018-05-15T00:24:28.720Z,78.35
2018-05-15T00:26:58.176Z,78.63
2018-05-15T00:29:26.903Z,78.33
2018-05-15T00:31:55.656Z,77.70
2018-05-15T00:34:24.234Z,76.47
2018-05-15T00:36:52.969Z,76.23
2018-05-15T00:39:21.675Z,76.18
2018-05-15T00:41:50.586Z,76.42
2018-05-15T00:44:19.427Z,77.02
2018-05-15T00:46:48.057Z,77.44
2018-05-15T00:49:16.694Z,77.43
2018-05-15T00:51:46.245Z,76.86
2018-05-15T00:54:15.783Z,76.47
2018-05-15T00:56:44.788Z,76.24
2018-05-15T00:59:13.518Z,75.55
2018-05-15T01:01:43.006Z,74.53
2018-05-15T01:04:11.709Z,74.05
2018-05-15T01:06:40.211Z,74.28
2018-05-15T01:09:08.755Z,74.19
2018-05-15T01:11:38.458Z,73.93
2018-05-15T01:14:07.045Z,73.30
2018-05-15T01:16:35.760Z,73.33
2018-05-15T01:19:04.451Z,73.57
2018-05-15T01:21:33.249Z,73.70
2018-05-15T01:24:03.627Z,73.32
2018-05-15T01:26:32.891Z,73.28
2018-05-15T01:29:01.846Z,73.95
2018-05-15T01:31:30.572Z,74.54
2018-05-15T01:34:00.121Z,75.28
2018-05-15T01:36:28.825Z,76.46
2018-05-15T01:38:58.344Z,76.43
2018-05-15T01:41:27.083Z,76.48
2018-05-15T01:43:55.836Z,77.08
2018-05-15T01:46:24.540Z,77.29
2018-05-15T01:48:53.285Z,77.03
2018-05-15T01:51:21.800Z,77.42
2018-05-15T01:53:50.652Z,77.75
2018-05-15T01:56:21.100Z,77.59
2018-05-15T01:58:51.089Z,77.30
2018-05-15T02:01:19.823Z,77.44
2018-05-15T02:03:48.595Z,77.97
2018-05-15T02:06:17.131Z,78.08
2018-05-15T02:08:47.337Z,78.02
2018-05-15T02:11:15.910Z,78.56
2018-05-15T02:13:44.644Z,78.50
2018-05-15T02:16:13.257Z,78.57
2018-05-15T02:18:42.794Z,78.82
2018-05-15T02:21:12.080Z,79.28
2018-05-15T02:23:43.607Z,78.94
2018-05-15T02:26:12.867Z,79.38
2018-05-15T02:28:41.815Z,80.30
2018-05-15T02:31:10.339Z,81.00
2018-05-15T02:33:38.905Z,81.51
2018-05-15T02:36:07.380Z,81.74
2018-05-15T02:38:36.917Z,81.57
2018-05-15T02:41:05.682Z,82.03
2018-05-15T02:43:34.349Z,81.95
2018-05-15T02:46:03.170Z,81.69
2018-05-15T02:48:32.030Z,82.06
2018-05-15T02:51:01.513Z,81.89
2018-05-15T02:53:30.157Z,82.13
2018-05-15T02:55:59.884Z,82.35
2018-05-15T02:58:28.963Z,81.96
2018-05-15T03:00:58.343Z,81.79
2018-05-15T03:03:27.780Z,81.13
2018-05-15T03:05:56.384Z,80.76
2018-05-15T03:08:24.973Z,80.34
2018-05-15T03:10:54.372Z,80.03
2018-05-15T03:13:23.080Z,80.11
2018-05-15T03:15:52.368Z,79.87
2018-05-15T03:18:21.061Z,79.95
2018-05-15T03:20:49.823Z,80.15
2018-05-15T03:23:18.430Z,80.05
2018-05-15T03:25:47.084Z,80.14
2018-05-15T03:28:16.454Z,79.36
2018-05-15T03:30:45.745Z,79.42
2018-05-15T03:33:14.343Z,79.53
2018-05-15T03:35:43.445Z,79.88
2018-05-15T03:38:12.165Z,79.73
2018-05-15T03:40:40.881Z,80.22
2018-05-15T03:43:09.531Z,79.99
2018-05-15T03:45:38.302Z,79.70
2018-05-15T03:48:06.761Z,79.48
2018-05-15T03:50:36.314Z,79.53
2018-05-15T03:53:05.137Z,79.73
2018-05-15T03:55:34.615Z,79.92
2018-05-15T03:58:04.383Z,79.86
2018-05-15T04:04:00.616Z,79.43
2018-05-15T04:06:47.421Z,78.99
2018-05-15T04:09:16.029Z,79.11
2018-05-15T04:11:44.742Z,78.95
2018-05-15T04:14:13.483Z,78.80
2018-05-15T04:16:42.221Z,79.13
2018-05-15T04:19:12.498Z,79.37
2018-05-15T04:21:41.921Z,79.75
2018-05-15T04:24:10.652Z,80.13
2018-05-15T04:26:39.447Z,80.45
2018-05-15T04:29:08.866Z,79.98
2018-05-15T04:31:38.366Z,80.48
2018-05-15T04:34:07.155Z,81.13
2018-05-15T04:36:36.691Z,81.97
2018-05-15T04:39:07.311Z,81.95
2018-05-15T04:41:36.061Z,82.47
2018-05-15T04:44:04.693Z,82.38
2018-05-15T04:46:33.405Z,82.42
2018-05-15T04:49:02.139Z,82.42
2018-05-15T04:51:30.813Z,82.21
2018-05-15T04:53:59.375Z,81.50
2018-05-15T04:56:28.240Z,79.96
2018-05-15T04:58:57.358Z,79.70
2018-05-15T05:01:27.145Z,81.43
2018-05-15T05:03:57.080Z,82.68
2018-05-15T05:06:26.651Z,82.96
2018-05-15T05:08:55.449Z,84.23
2018-05-15T05:11:24.260Z,84.97
2018-05-15T05:13:53.022Z,85.00
2018-05-15T05:16:22.492Z,86.61
2018-05-15T05:18:51.298Z,87.35
2018-05-15T05:21:20.221Z,88.82
2018-05-15T05:23:49.021Z,89.04
2018-05-15T05:26:17.553Z,89.09
2018-05-15T05:28:46.487Z,88.80
2018-05-15T05:31:15.856Z,88.49
2018-05-15T05:33:45.127Z,88.28
2018-05-15T05:36:13.872Z,88.11
2018-05-15T05:38:42.534Z,88.04
2018-05-15T05:41:11.369Z,86.46
2018-05-15T05:43:40.954Z,85.39
2018-05-15T05:46:09.716Z,86.08
2018-05-15T05:48:38.551Z,86.83
2018-05-15T05:51:07.270Z,87.43
2018-05-15T05:53:36.041Z,86.17
2018-05-15T05:56:04.800Z,86.79
2018-05-15T05:58:33.508Z,86.41
2018-05-15T06:01:02.628Z,86.67
2018-05-15T06:03:32.938Z,87.35
2018-05-15T06:06:02.303Z,87.66
2018-05-15T06:08:31.095Z,87.20
2018-05-15T06:10:59.631Z,85.08
2018-05-15T06:13:28.422Z,85.70
2018-05-15T06:15:58.190Z,84.48
2018-05-15T06:18:27.609Z,83.99
2018-05-15T06:20:56.678Z,82.90
2018-05-15T06:23:25.697Z,82.43
2018-05-15T06:25:54.512Z,82.67
2018-05-15T06:28:23.273Z,83.57
2018-05-15T06:30:53.428Z,82.89
2018-05-15T06:33:23.240Z,81.70
2018-05-15T06:35:53.272Z,75.99
2018-05-15T06:38:21.913Z,76.96
2018-05-15T06:40:51.240Z,74.57
2018-05-15T06:43:19.728Z,71.73
2018-05-15T06:45:50.030Z,69.61
2018-05-15T06:48:19.975Z,66.88
2018-05-15T06:50:50.458Z,65.88
2018-05-15T06:53:19.293Z,66.94
2018-05-15T06:55:47.824Z,68.21
2018-05-15T06:58:16.581Z,66.25
2018-05-15T07:00:46.311Z,68.65
2018-05-15T07:03:16.884Z,69.89
2018-05-15T07:05:46.625Z,67.68
2018-05-15T07:08:15.303Z,69.78
2018-05-15T07:10:44.606Z,71.20
2018-05-15T07:13:14.190Z,69.84
2018-05-15T07:15:42.862Z,67.90
2018-05-15T07:18:11.478Z,69.72
2018-05-15T07:20:40.758Z,69.84
2018-05-15T07:23:09.489Z,71.92
2018-05-15T07:25:39.195Z,74.58
2018-05-15T07:28:08.875Z,73.94
2018-05-15T07:30:38.879Z,75.72
2018-05-15T07:33:09.257Z,76.12
2018-05-15T07:35:40.205Z,76.45
2018-05-15T07:38:08.898Z,76.48
2018-05-15T07:40:37.709Z,74.67
2018-05-15T07:43:06.245Z,68.08
2018-05-15T07:45:34.887Z,65.91
2018-05-15T07:48:03.635Z,63.22
2018-05-15T07:50:32.391Z,59.61
2018-05-15T07:53:01.387Z,61.92
2018-05-15T07:55:30.262Z,66.68
2018-05-15T07:57:58.996Z,67.07
2018-05-15T08:00:28.187Z,67.18
2018-05-15T08:02:59.532Z,68.66
2018-05-15T08:05:29.797Z,69.77
2018-05-15T08:07:59.122Z,68.25
2018-05-15T08:10:29.407Z,69.08
2018-05-15T08:12:58.395Z,71.23
2018-05-15T08:15:28.658Z,76.09
2018-05-15T08:17:57.349Z,78.69
2018-05-15T08:20:26.135Z,77.21
2018-05-15T08:22:54.955Z,77.71
2018-05-15T08:25:24.634Z,81.04
2018-05-15T08:27:53.413Z,81.24
2018-05-15T08:30:22.613Z,83.01
2018-05-15T08:32:51.962Z,83.62
2018-05-15T08:35:20.972Z,84.38
2018-05-15T08:37:49.557Z,86.16
2018-05-15T08:40:18.228Z,85.75
2018-05-15T08:42:47.624Z,76.94
2018-05-15T08:45:16.412Z,80.51
2018-05-15T08:47:45.072Z,83.22
2018-05-15T08:50:13.884Z,82.47
2018-05-15T08:52:43.576Z,82.07
2018-05-15T08:55:12.133Z,83.64
2018-05-15T08:57:41.706Z,82.56
2018-05-15T09:00:10.351Z,82.89
2018-05-15T09:02:40.226Z,83.68
2018-05-15T09:05:09.800Z,85.53
2018-05-15T09:07:39.003Z,83.15
2018-05-15T09:10:07.559Z,83.12
2018-05-15T09:12:36.970Z,81.17
2018-05-15T09:15:05.558Z,81.96
2018-05-15T09:17:34.078Z,80.58
2018-05-15T09:20:03.649Z,78.09
2018-05-15T09:22:32.259Z,81.14
2018-05-15T09:25:00.968Z,81.47
2018-05-15T09:27:29.758Z,81.19
2018-05-15T09:29:58.487Z,81.06
2018-05-15T09:32:27.123Z,82.64
2018-05-15T09:34:56.646Z,83.01
2018-05-15T09:37:26.752Z,83.18
2018-05-15T09:39:55.863Z,81.80
2018-05-15T09:42:24.970Z,83.95
2018-05-15T09:44:53.636Z,82.14
2018-05-15T09:47:23.081Z,81.78
2018-05-15T09:49:53.719Z,82.08
2018-05-15T09:52:23.329Z,82.07
2018-05-15T09:54:52.295Z,81.27
2018-05-15T09:57:21.358Z,78.50
2018-05-15T09:59:50.155Z,82.00
2018-05-15T10:02:18.731Z,83.29
2018-05-15T10:04:47.301Z,84.72
2018-05-15T10:07:17.355Z,84.08
2018-05-15T10:09:46.470Z,84.18
2018-05-15T10:12:15.749Z,84.38
2018-05-15T10:14:44.378Z,85.23
2018-05-15T10:17:13.747Z,84.59
2018-05-15T10:19:42.408Z,84.08
2018-05-15T10:22:11.707Z,84.58
2018-05-15T10:24:40.328Z,83.76
2018-05-15T10:27:09.898Z,84.43
2018-05-15T10:29:38.526Z,82.57
2018-05-15T10:32:07.185Z,84.16
2018-05-15T10:34:36.800Z,84.58
2018-05-15T10:37:05.493Z,85.79
2018-05-15T10:39:34.531Z,85.09
2018-05-15T10:42:05.470Z,85.68
2018-05-15T10:44:34.859Z,85.71
2018-05-15T10:47:03.478Z,84.86
2018-05-15T10:49:32.036Z,83.53
2018-05-15T10:52:01.409Z,84.45
2018-05-15T10:54:30.242Z,85.33
2018-05-15T10:56:59.548Z,85.88
2018-05-15T10:59:28.403Z,84.15
2018-05-15T11:01:57.803Z,85.42
2018-05-15T11:04:26.353Z,86.71
2018-05-15T11:06:55.008Z,86.14
2018-05-15T11:09:24.602Z,86.15
2018-05-15T11:11:53.924Z,86.11
2018-05-15T11:14:22.974Z,85.37
2018-05-15T11:16:51.658Z,85.23
2018-05-15T11:19:38.342Z,85.21
2018-05-15T11:22:24.903Z,84.61
2018-05-15T11:24:54.326Z,86.21
2018-05-15T11:27:23.674Z,85.00
2018-05-15T11:29:52.363Z,85.79
2018-05-15T11:32:21.596Z,85.53
2018-05-15T11:34:51.176Z,83.72
2018-05-15T11:37:19.850Z,83.79
2018-05-15T11:39:48.486Z,83.64
2018-05-15T11:42:17.464Z,83.65
2018-05-15T11:44:46.698Z,82.64
2018-05-15T11:47:15.785Z,81.54
2018-05-15T11:49:45.035Z,79.44
2018-05-15T11:52:14.098Z,77.94
2018-05-15T11:54:42.604Z,75.79
2018-05-15T11:57:11.351Z,74.11
2018-05-15T11:59:39.943Z,74.87
2018-05-15T12:02:08.632Z,74.58
2018-05-15T12:04:38.083Z,79.21
2018-05-15T12:07:06.794Z,76.45
2018-05-15T12:09:35.443Z,76.57
2018-05-15T12:12:04.070Z,78.21
2018-05-15T12:14:33.660Z,76.87
2018-05-15T12:17:02.937Z,76.03
2018-05-15T12:19:32.140Z,76.90
2018-05-15T12:22:02.070Z,76.98
2018-05-15T12:24:31.639Z,80.70
2018-05-15T12:27:00.253Z,79.09
2018-05-15T12:29:29.168Z,77.68
2018-05-15T12:31:58.454Z,75.80
2018-05-15T12:34:29.564Z,74.85
2018-05-15T12:36:58.205Z,77.75
2018-05-15T12:39:26.830Z,75.37
2018-05-15T12:41:55.774Z,78.37
2018-05-15T12:44:25.298Z,76.05
2018-05-15T12:46:54.522Z,72.43
2018-05-15T12:49:25.335Z,72.36
2018-05-15T12:51:54.015Z,75.24
2018-05-15T12:54:22.654Z,69.53
2018-05-15T12:56:52.765Z,67.38
2018-05-15T12:59:21.439Z,68.12
2018-05-15T13:01:50.138Z,76.53
2018-05-15T13:04:19.562Z,72.09
2018-05-15T13:06:48.195Z,69.62
2018-05-15T13:09:17.256Z,65.88
2018-05-15T13:11:46.681Z,68.14
2018-05-15T13:14:16.629Z,70.09
2018-05-15T13:16:45.481Z,71.27
2018-05-15T13:19:14.476Z,73.58
2018-05-15T13:21:43.051Z,76.97
2018-05-15T13:24:12.138Z,78.27
2018-05-15T13:26:41.928Z,81.18
2018-05-15T13:29:10.660Z,82.55
2018-05-15T13:31:39.458Z,84.64
2018-05-15T13:34:08.472Z,83.93
2018-05-15T13:36:37.287Z,84.40
2018-05-15T13:39:07.121Z,84.36
2018-05-15T13:41:36.463Z,84.64
2018-05-15T13:44:10.641Z,84.45
2018-05-15T13:46:39.670Z,86.84
2018-05-15T13:49:09.948Z,86.12
2018-05-15T13:51:39.587Z,86.89
2018-05-15T13:54:09.066Z,87.31
2018-05-15T13:56:39.011Z,87.14
2018-05-15T13:59:08.201Z,87.45
2018-05-15T14:01:37.989Z,87.21
2018-05-15T14:04:08.198Z,87.13
2018-05-15T14:06:38.220Z,87.83
2018-05-15T14:09:09.944Z,87.05
2018-05-15T14:11:39.136Z,86.99
2018-05-15T14:14:07.931Z,87.29
2018-05-15T14:16:36.455Z,84.32
2018-05-15T14:19:05.313Z,84.67
2018-05-15T14:21:34.383Z,84.48
2018-05-15T14:24:05.021Z,84.84
2018-05-15T14:26:34.391Z,84.77
2018-05-15T14:29:04.305Z,83.79
2018-05-15T14:31:33.649Z,82.46
2018-05-15T14:34:03.182Z,84.32
2018-05-15T14:36:33.471Z,85.37
2018-05-15T14:39:03.903Z,85.07
2018-05-15T14:41:52.397Z,84.58
2018-05-15T14:44:22.216Z,83.09
2018-05-15T14:46:50.909Z,81.76
2018-05-15T14:49:20.122Z,80.10
2018-05-15T14:51:49.594Z,79.01
2018-05-15T14:54:21.186Z,80.16
2018-05-15T14:56:50.100Z,79.05
2018-05-15T14:59:19.537Z,77.95
2018-05-15T15:01:48.361Z,79.90
2018-05-15T15:04:17.626Z,79.09
2018-05-15T15:06:46.304Z,77.89
2018-05-15T15:09:15.842Z,76.63
2018-05-15T15:11:44.533Z,77.48
2018-05-15T15:14:16.921Z,75.49
2018-05-15T15:16:47.504Z,73.70
2018-05-15T15:19:17.279Z,73.61
2018-05-15T15:21:47.088Z,69.48
2018-05-15T15:24:15.894Z,70.88
2018-05-15T15:26:49.672Z,73.18
2018-05-15T15:29:23.304Z,70.26
2018-05-15T15:31:54.102Z,69.62
2018-05-15T15:34:22.968Z,71.19
2018-05-15T15:36:52.793Z,72.23
2018-05-15T15:39:23.124Z,71.74
2018-05-15T15:41:52.753Z,71.97
2018-05-15T15:44:21.473Z,70.70
2018-05-15T15:46:51.102Z,68.88
2018-05-15T15:49:20.233Z,70.04
2018-05-15T15:51:50.434Z,71.32
2018-05-15T15:54:19.308Z,72.28
2018-05-15T15:56:50.935Z,69.91
2018-05-15T15:59:20.058Z,69.78
2018-05-15T16:01:48.806Z,69.93
2018-05-15T16:04:19.815Z,69.91
2018-05-15T16:06:50.513Z,69.81
2018-05-15T16:09:19.245Z,69.45
2018-05-15T16:11:48.630Z,69.79
2018-05-15T16:14:17.202Z,70.19
2018-05-15T16:16:46.739Z,69.94
2018-05-15T16:19:15.399Z,70.12
2018-05-15T16:21:44.974Z,70.29
2018-05-15T16:24:15.458Z,69.96
2018-05-15T16:26:46.455Z,72.15
2018-05-15T16:29:16.232Z,72.81
2018-05-15T16:31:45.562Z,74.84
2018-05-15T16:34:15.303Z,75.66
2018-05-15T16:36:44.451Z,76.26
2018-05-15T16:39:13.379Z,76.23
2018-05-15T16:41:43.049Z,75.26
2018-05-15T16:44:13.086Z,74.39
2018-05-15T16:46:42.189Z,75.17
2018-05-15T16:49:13.929Z,75.97
2018-05-15T16:51:42.879Z,76.03
2018-05-15T16:54:13.129Z,75.60
2018-05-15T16:56:43.591Z,74.72
2018-05-15T16:59:14.134Z,74.54
2018-05-15T17:01:43.367Z,75.39
2018-05-15T17:04:13.163Z,76.88
2018-05-15T17:06:42.436Z,76.85
2018-05-15T17:09:15.301Z,78.17
2018-05-15T17:11:44.776Z,78.59
2018-05-15T17:14:14.215Z,78.26
2018-05-15T17:16:45.700Z,78.33
2018-05-15T17:19:15.945Z,79.10
2018-05-15T17:21:45.727Z,78.53
2018-05-15T17:24:16.921Z,79.21
2018-05-15T17:26:46.543Z,79.41
2018-05-15T17:29:16.044Z,79.63
2018-05-15T17:31:45.529Z,79.62
2018-05-15T17:34:19.093Z,79.27
2018-05-15T17:36:48.693Z,80.82
2018-05-15T17:39:22.276Z,81.30
2018-05-15T17:41:53.974Z,82.08
2018-05-15T17:44:34.711Z,82.81
2018-05-15T17:47:05.360Z,82.85
2018-05-15T17:49:41.045Z,83.17
2018-05-15T17:52:11.417Z,83.27
2018-05-15T17:54:41.692Z,83.81
2018-05-15T17:57:10.958Z,83.61
2018-05-15T17:59:43.127Z,83.61
2018-05-15T18:02:13.069Z,83.30
2018-05-15T18:04:42.477Z,83.62
2018-05-15T18:07:11.679Z,84.08
2018-05-15T18:09:41.718Z,83.88
2018-05-15T18:12:12.094Z,84.54
2018-05-15T18:14:41.666Z,84.91
2018-05-15T18:17:11.743Z,85.38
2018-05-15T18:19:42.868Z,86.03
2018-05-15T18:22:12.006Z,86.14
2018-05-15T18:24:41.751Z,86.00
2018-05-15T18:27:11.253Z,85.94
2018-05-15T18:29:40.749Z,86.19
2018-05-15T18:32:09.820Z,86.29
2018-05-15T18:34:39.078Z,86.45
2018-05-15T18:37:09.089Z,86.58
2018-05-15T18:39:39.198Z,87.09
2018-05-15T18:42:09.997Z,87.61
2018-05-15T18:44:39.665Z,88.05
2018-05-15T18:47:09.776Z,88.75
2018-05-15T18:49:42.206Z,89.17
2018-05-15T18:52:13.570Z,89.23
2018-05-15T18:54:43.127Z,89.06
2018-05-15T18:57:13.856Z,89.08
2018-05-15T18:59:43.620Z,89.16
2018-05-15T19:02:12.414Z,89.24
2018-05-15T19:04:43.675Z,89.53
2018-05-15T19:07:15.542Z,89.17
2018-05-15T19:09:45.329Z,89.18
2018-05-15T19:12:18.077Z,89.36
2018-05-15T19:14:47.462Z,89.71
2018-05-15T19:17:16.760Z,89.96
2018-05-15T19:19:47.013Z,90.26
2018-05-15T19:22:16.991Z,90.54
2018-05-15T19:24:46.588Z,90.83
2018-05-15T19:27:17.490Z,90.75
2018-05-15T19:29:48.185Z,90.91
2018-05-15T19:32:19.556Z,91.00
2018-05-15T19:34:54.158Z,91.02
2018-05-15T19:37:24.001Z,91.25
2018-05-15T19:39:57.965Z,91.29
2018-05-15T19:42:29.207Z,91.33
2018-05-15T19:45:01.872Z,91.42
2018-05-15T19:47:33.145Z,91.54
2018-05-15T19:50:02.517Z,91.84
2018-05-15T19:52:32.327Z,92.10
2018-05-15T19:55:01.301Z,92.14
2018-05-15T19:57:35.150Z,92.01
2018-05-15T20:00:04.035Z,91.89
2018-05-15T20:02:33.649Z,91.88
2018-05-15T20:05:07.660Z,91.72
2018-05-15T20:07:37.536Z,91.69
2018-05-15T20:10:06.655Z,91.76
2018-05-15T20:12:35.961Z,91.81
2018-05-15T20:15:04.828Z,91.57
2018-05-15T20:17:33.788Z,91.16
2018-05-15T20:20:02.804Z,90.86
2018-05-15T20:22:32.338Z,90.70
2018-05-15T20:25:01.277Z,90.57
2018-05-15T20:27:32.429Z,90.38
2018-05-15T20:30:05.032Z,90.33
2018-05-15T20:32:35.345Z,90.49
2018-05-15T20:35:06.543Z,90.57
2018-05-15T20:37:35.867Z,90.61
2018-05-15T20:40:04.840Z,90.77
2018-05-15T20:42:34.069Z,90.92
2018-05-15T20:45:03.500Z,91.00
2018-05-15T20:47:33.432Z,90.96
2018-05-15T20:50:02.567Z,90.96
2018-05-15T20:52:34.595Z,91.10
2018-05-15T20:55:05.707Z,91.25
2018-05-15T20:57:36.349Z,91.23
2018-05-15T21:00:06.581Z,91.18
2018-05-15T21:02:35.759Z,91.22
2018-05-15T21:05:06.821Z,91.30
2018-05-15T21:07:36.548Z,91.45
2018-05-15T21:10:06.207Z,91.47
2018-05-15T21:12:37.380Z,91.37
2018-05-15T21:15:06.957Z,91.41
2018-05-15T21:17:36.352Z,91.36
2018-05-15T21:20:07.822Z,91.41
2018-05-15T21:22:37.013Z,91.53
2018-05-15T21:25:10.669Z,91.51
2018-05-15T21:27:40.665Z,91.84
2018-05-15T21:30:13.669Z,92.00
2018-05-15T21:32:43.117Z,92.32
2018-05-15T21:35:13.212Z,92.37
2018-05-15T21:37:43.377Z,92.37
2018-05-15T21:40:17.292Z,92.56
2018-05-15T21:42:46.211Z,92.69
2018-05-15T21:45:15.039Z,92.67
2018-05-15T21:47:43.811Z,92.70
2018-05-15T21:50:12.929Z,92.88
2018-05-15T21:52:43.522Z,93.22
2018-05-15T21:55:12.383Z,93.38
2018-05-15T21:57:42.524Z,93.43
2018-05-15T22:00:12.168Z,93.41
2018-05-15T22:02:40.945Z,93.34
2018-05-15T22:05:10.961Z,93.28
2018-05-15T22:07:41.616Z,93.29
2018-05-15T22:10:10.303Z,93.29
2018-05-15T22:12:57.096Z,93.17
2018-05-15T22:15:44.198Z,93.23
2018-05-15T22:18:31.427Z,93.05
2018-05-15T22:21:17.921Z,93.01
2018-05-15T22:23:45.815Z,93.16
2018-05-15T22:26:14.636Z,93.26
2018-05-15T22:28:43.948Z,93.26
2018-05-15T22:31:12.840Z,93.20
2018-05-15T22:33:42.496Z,93.34
2018-05-15T22:36:11.815Z,93.44
2018-05-15T22:38:42.876Z,93.42
2018-05-15T22:41:12.301Z,93.51
2018-05-15T22:43:41.885Z,93.51
2018-05-15T22:46:11.151Z,93.53
2018-05-15T22:48:40.177Z,93.67
2018-05-15T22:51:09.141Z,93.67
2018-05-15T22:53:38.667Z,93.94
2018-05-15T22:56:08.235Z,94.23
2018-05-15T22:58:37.305Z,94.44
2018-05-15T23:01:06.711Z,94.55
2018-05-15T23:03:37.253Z,94.62
2018-05-15T23:06:06.765Z,94.61
2018-05-15T23:08:36.436Z,94.53
2018-05-15T23:11:07.036Z,94.46
2018-05-15T23:13:36.464Z,94.35
2018-05-15T23:16:06.010Z,94.18
2018-05-15T23:18:35.094Z,94.12
2018-05-15T23:21:03.753Z,94.01
2018-05-15T23:23:32.824Z,93.92
2018-05-15T23:26:01.394Z,93.85
2018-05-15T23:28:31.140Z,93.73
2018-05-15T23:31:00.576Z,93.95
2018-05-15T23:33:30.569Z,94.05
2018-05-15T23:36:00.260Z,94.23
2018-05-15T23:38:30.434Z,94.26
2018-05-15T23:40:59.758Z,94.31
2018-05-15T23:43:28.599Z,94.37
2018-05-15T23:45:57.528Z,94.46
2018-05-15T23:48:26.851Z,94.51
2018-05-15T23:50:55.684Z,94.52
2018-05-15T23:53:24.481Z,94.52
2018-05-15T23:55:53.020Z,94.48
2018-05-15T23:58:21.705Z,94.33
